Time;durP1;ratioP1;P1;durP2;ratioP2;P2;SDS_P1;SDS_P2;PMS_P1;PMS_P2;Temp;Humidity;BMP_temperature;BMP_pressure;BME280_temperature;BME280_humidity;BME280_pressure;Samples;Min_cycle;Max_cycle;Signal;HPM_P1;HPM_P2
2023/03/16 00:00:30;;;;;;;46.20;27.70;;;;;;;-1.54;73.01;98819.39;435299;1256;98850;-39
2023/03/16 00:10:57;;;;;;;39.20;21.70;;;;;;;-1.47;73.13;98824.37;435062;1253;108017;-40
2023/03/16 00:21:05;;;;;;;49.40;25.50;;;;;;;-1.45;73.37;98829.00;435332;1253;97923;-40
2023/03/16 00:31:16;;;;;;;61.10;28.10;;;;;;;-1.57;73.37;98839.17;435337;1255;99217;-40
2023/03/16 00:41:24;;;;;;;61.30;27.10;;;;;;;-1.78;73.56;98839.51;435265;1254;111119;-40
2023/03/16 00:51:32;;;;;;;53.80;24.50;;;;;;;-1.96;73.40;98835.93;435321;1256;108480;-39
2023/03/16 01:01:40;;;;;;;50.70;24.10;;;;;;;-2.11;73.88;98837.58;435256;1256;98742;-40
2023/03/16 01:11:50;;;;;;;44.30;23.70;;;;;;;-2.13;74.13;98835.71;435224;1253;110942;-38
2023/03/16 01:21:56;;;;;;;;;;;;;;;-2.05;74.06;98834.96;435112;1256;107764;-39
2023/03/16 01:32:04;;;;;;;40.60;20.10;;;;;;;-1.98;74.32;98837.95;435287;1254;97981;-40
2023/03/16 01:42:09;;;;;;;42.20;23.70;;;;;;;-1.93;74.50;98840.20;435180;1256;107171;-41
2023/03/16 01:52:21;;;;;;;51.90;28.50;;;;;;;-1.91;75.07;98845.36;435289;1253;97919;-40
2023/03/16 02:12:38;;;;;;;36.30;20.10;;;;;;;-2.13;75.18;98857.15;435257;1256;108681;-40
2023/03/16 02:22:49;;;;;;;41.80;21.30;;;;;;;-2.19;75.43;98868.86;435149;1253;99260;-40
2023/03/16 02:32:56;;;;;;;48.50;21.30;;;;;;;-2.11;75.30;98877.36;436014;1256;111781;-38
2023/03/16 02:43:05;;;;;;;29.20;17.00;;;;;;;-1.98;75.43;98888.33;435193;1251;107400;-39
2023/03/16 02:53:12;;;;;;;36.30;18.60;;;;;;;-1.85;75.65;98904.39;436251;1256;98016;-39
2023/03/16 03:03:19;;;;;;;43.70;20.30;;;;;;;-1.86;76.05;98915.27;435228;1256;111096;-40
2023/03/16 03:13:24;;;;;;;36.00;19.60;;;;;;;-1.97;75.89;98922.34;435227;1256;107269;-40
2023/03/16 03:23:31;;;;;;;39.70;22.00;;;;;;;-2.18;75.78;98927.57;435211;1251;98834;-40
2023/03/16 03:33:39;;;;;;;43.70;19.80;;;;;;;-2.41;75.93;98937.94;436076;1251;111277;-40
2023/03/16 03:43:45;;;;;;;32.90;20.40;;;;;;;-2.51;76.10;98949.41;435854;1256;435235;-41
2023/03/16 03:53:52;;;;;;;35.70;18.90;;;;;;;-2.45;76.11;98957.77;435377;1251;98832;-40
2023/03/16 04:04:00;;;;;;;27.40;14.80;;;;;;;-2.28;76.44;98966.95;435262;1256;109657;-40
2023/03/16 04:14:07;;;;;;;28.50;15.20;;;;;;;-2.07;76.74;98978.68;435421;1251;98013;-40
2023/03/16 04:24:15;;;;;;;35.60;19.20;;;;;;;-2.05;76.59;98979.41;435342;1256;111958;-40
2023/03/16 04:44:29;;;;;;;38.60;20.10;;;;;;;-2.42;76.48;98983.46;435261;1251;98073;-41
2023/03/16 04:54:36;;;;;;;32.70;20.00;;;;;;;-2.53;76.78;98985.66;435145;1256;112860;-41
2023/03/16 05:04:43;;;;;;;36.50;18.50;;;;;;;-2.52;76.43;98990.75;435291;1256;107223;-40
2023/03/16 05:14:50;;;;;;;26.80;16.40;;;;;;;-2.46;76.67;99006.55;436438;1251;99138;-41
2023/03/16 05:24:57;;;;;;;47.10;24.30;;;;;;;-2.27;76.92;99018.17;435682;1255;108917;-40
2023/03/16 05:35:05;;;;;;;52.50;24.80;;;;;;;-2.15;77.03;99028.48;435701;1253;99220;-39
2023/03/16 05:55:19;;;;;;;31.50;17.50;;;;;;;-0.34;77.11;99041.04;435323;1251;108310;-40
2023/03/16 06:05:27;;;;;;;30.70;17.70;;;;;;;0.63;77.21;99049.47;435139;1251;99243;-40
2023/03/16 06:15:34;;;;;;;42.30;21.00;;;;;;;1.84;77.06;99052.90;436389;1256;111963;-40
2023/03/16 06:25:42;;;;;;;51.90;23.30;;;;;;;2.82;76.81;99063.59;435224;1256;107643;-40
2023/03/16 06:35:50;;;;;;;48.40;23.20;;;;;;;3.73;76.23;99062.06;435314;1253;99194;-40
2023/03/16 06:45:57;;;;;;;28.40;15.90;;;;;;;4.49;75.70;99070.25;435303;1253;111839;-40
2023/03/16 06:56:05;;;;;;;25.50;13.90;;;;;;;5.06;74.85;99079.98;435238;1254;110159;-41
2023/03/16 07:06:12;;;;;;;21.40;12.60;;;;;;;5.41;74.09;99080.20;435263;1256;99237;-40
2023/03/16 07:16:18;;;;;;;25.20;13.70;;;;;;;5.21;73.07;99092.35;436225;1256;108132;-40
2023/03/16 07:26:26;;;;;;;23.90;12.80;;;;;;;5.18;72.88;99094.06;435279;1256;99260;-42
2023/03/16 07:36:33;;;;;;;29.70;13.40;;;;;;;5.53;72.57;99098.36;435263;1253;112230;-40
2023/03/16 07:56:47;;;;;;;15.40;7.10;;;;;;;5.73;71.27;99112.74;435137;1253;98041;-40
2023/03/16 08:17:04;;;;;;;11.20;6.20;;;;;;;6.48;70.26;99109.27;435283;1256;99259;-40
2023/03/16 08:27:12;;;;;;;11.50;6.10;;;;;;;6.76;69.39;99121.13;435321;1256;111842;-39
2023/03/16 08:37:19;;;;;;;7.90;5.10;;;;;;;6.22;68.46;99128.77;435261;1253;107391;-40
2023/03/16 08:47:25;;;;;;;9.50;6.50;;;;;;;6.42;67.62;99136.69;435263;1253;117799;-40
2023/03/16 08:57:33;;;;;;;17.30;6.30;;;;;;;6.59;66.81;99144.17;435296;1256;110665;-40
2023/03/16 09:07:41;;;;;;;14.90;6.30;;;;;;;6.14;66.66;99148.73;435280;1256;98493;-41
2023/03/16 09:17:49;;;;;;;13.30;6.50;;;;;;;6.50;66.54;99157.69;435363;1254;111660;-40
2023/03/16 09:27:55;;;;;;;13.70;7.20;;;;;;;6.30;65.69;99159.88;435263;1256;109398;-40
2023/03/16 09:38:02;;;;;;;11.50;7.00;;;;;;;6.45;65.05;99159.75;435222;1256;99200;-41
2023/03/16 09:48:15;;;;;;;15.10;8.00;;;;;;;6.60;65.11;99166.98;435306;1253;111332;-40
2023/03/16 09:58:23;;;;;;;13.60;7.90;;;;;;;6.67;64.55;99170.12;435214;1255;108047;-41
2023/03/16 10:08:32;;;;;;;12.90;6.00;;;;;;;7.02;63.72;99176.73;435364;1256;98810;-41
2023/03/16 10:18:39;;;;;;;6.40;3.20;;;;;;;7.26;61.47;99176.61;435246;1256;112060;-40
2023/03/16 10:28:45;;;;;;;8.70;2.90;;;;;;;6.70;61.16;99178.82;435376;1254;107363;-39
2023/03/16 10:38:54;;;;;;;11.40;3.00;;;;;;;6.94;59.72;99188.33;435229;1257;98599;-40
2023/03/16 10:49:01;;;;;;;16.10;4.30;;;;;;;6.62;57.87;99194.80;435349;1253;110242;-40
2023/03/16 11:09:19;;;;;;;6.50;3.70;;;;;;;6.69;57.74;99188.40;438944;1256;98732;-40
2023/03/16 11:19:24;;;;;;;24.10;4.00;;;;;;;7.31;56.97;99191.14;436594;1256;110484;-40
2023/03/16 11:29:31;;;;;;;6.90;2.80;;;;;;;7.48;56.44;99179.77;435330;1251;107937;-41
2023/03/16 11:39:39;;;;;;;10.90;3.30;;;;;;;7.50;54.21;99183.58;436369;1256;99215;-40
2023/03/16 11:49:52;;;;;;;19.70;4.50;;;;;;;6.76;54.53;99182.19;435300;1256;99201;-40
2023/03/16 12:30:37;;;;;;;9.50;5.20;;;;;;;6.37;53.17;99176.37;435507;1257;110267;-41
2023/03/16 13:01:02;;;;;;;14.80;4.80;;;;;;;6.31;52.72;99169.30;435199;1256;111618;-40
2023/03/16 13:21:18;;;;;;;11.70;3.90;;;;;;;6.75;52.06;99176.64;435258;1256;99243;-40
2023/03/16 13:31:24;;;;;;;7.70;3.60;;;;;;;6.72;51.51;99179.28;435275;1256;106820;-41
2023/03/16 13:51:36;;;;;;;7.60;3.50;;;;;;;6.08;52.56;99180.20;435397;1253;110101;-40
2023/03/16 14:01:44;;;;;;;12.00;4.50;;;;;;;6.03;53.25;99179.61;435397;1251;99343;-40
2023/03/16 14:11:51;;;;;;;11.70;5.60;;;;;;;5.96;53.52;99174.35;435293;1257;98008;-40
2023/03/16 14:22:02;;;;;;;8.50;4.10;;;;;;;5.95;53.56;99173.23;435241;1256;111524;-41
2023/03/16 14:32:20;;;;;;;16.30;4.50;;;;;;;5.73;53.74;99167.36;435145;1256;107285;-41
2023/03/16 14:42:30;;;;;;;13.60;6.40;;;;;;;5.51;54.38;99170.64;436105;1257;98037;-40
2023/03/16 14:52:38;;;;;;;19.80;8.20;;;;;;;5.43;54.74;99174.83;435365;1257;106767;-40
2023/03/16 15:02:53;;;;;;;13.00;4.20;;;;;;;5.59;54.69;99171.92;435313;1251;99247;-40
2023/03/16 15:23:10;;;;;;;5.20;2.60;;;;;;;5.76;53.72;99167.96;435243;1251;107821;-40
2023/03/16 15:33:18;;;;;;;13.00;4.40;;;;;;;5.83;53.83;99170.29;435347;1264;99362;-38
2023/03/16 15:43:27;;;;;;;8.50;4.70;;;;;;;5.81;53.05;99171.89;435108;1255;199207;-39
2023/03/16 16:03:45;;;;;;;4.10;2.40;;;;;;;5.62;53.32;99185.11;435417;1251;118353;-41
2023/03/16 16:24:01;;;;;;;9.10;4.80;;;;;;;5.39;53.43;99196.25;435248;1251;99167;-40
2023/03/16 16:34:11;;;;;;;20.20;8.90;;;;;;;5.16;53.70;99201.83;435325;1251;111665;-41
2023/03/16 16:44:19;;;;;;;21.00;5.90;;;;;;;4.82;54.10;99216.22;435339;1258;107530;-40
2023/03/16 16:54:28;;;;;;;20.40;7.20;;;;;;;4.41;54.49;99223.58;435342;1251;99320;-40
2023/03/16 17:04:35;;;;;;;104.60;19.70;;;;;;;4.02;54.91;99224.52;435339;1251;110228;-40
2023/03/16 17:14:44;;;;;;;49.80;20.00;;;;;;;3.62;55.52;99231.38;435129;1257;109004;-41
2023/03/16 17:24:50;;;;;;;55.60;20.10;;;;;;;3.16;56.03;99241.70;435276;1257;99247;-39
2023/03/16 17:34:57;;;;;;;50.70;22.00;;;;;;;2.76;56.50;99241.54;435331;1257;111014;-41
2023/03/16 17:45:06;;;;;;;44.90;15.50;;;;;;;2.27;56.84;99242.89;435204;1257;108300;-39
2023/03/16 18:15:28;;;;;;;105.50;42.50;;;;;;;1.31;58.62;99266.02;436507;1257;108589;-40
2023/03/16 18:25:34;;;;;;;218.40;78.30;;;;;;;1.01;58.91;99272.95;435230;1264;99253;-40
2023/03/16 18:45:50;;;;;;;186.90;82.00;;;;;;;0.53;59.74;99279.18;435298;1251;107335;-40
2023/03/16 18:56:00;;;;;;;208.40;84.70;;;;;;;0.36;60.22;99285.85;439794;1251;99236;-39
2023/03/16 19:16:14;;;;;;;167.80;75.10;;;;;;;0.23;60.91;99295.69;438777;1256;110865;-41
2023/03/16 19:26:21;;;;;;;143.70;66.40;;;;;;;0.22;61.24;99299.69;437542;1256;107125;-40
2023/03/16 19:36:32;;;;;;;206.20;87.50;;;;;;;0.26;61.61;99309.23;436335;1255;97934;-40
2023/03/16 19:46:39;;;;;;;326.60;121.40;;;;;;;0.10;61.85;99318.10;435245;1251;106511;-41
2023/03/16 20:16:59;;;;;;;326.50;117.30;;;;;;;-0.34;62.78;99318.23;435960;1252;108504;-39
2023/03/16 20:27:11;;;;;;;354.40;127.70;;;;;;;-0.58;62.88;99319.77;435962;1256;99216;-42
2023/03/16 20:37:22;;;;;;;281.10;111.00;;;;;;;-0.75;63.29;99326.02;436321;1256;111294;-39
2023/03/16 20:47:30;;;;;;;298.00;117.00;;;;;;;-0.81;63.54;99332.52;435884;1253;107249;-40
2023/03/16 21:07:45;;;;;;;507.90;188.20;;;;;;;-0.90;64.26;99339.34;435400;1251;108534;-40
2023/03/16 21:17:54;;;;;;;359.40;158.80;;;;;;;-0.94;64.20;99344.38;435912;1256;98500;-40
2023/03/16 21:38:13;;;;;;;274.00;110.40;;;;;;;-0.98;64.86;99359.78;435307;1256;107843;-40
2023/03/16 21:48:18;;;;;;;298.90;125.90;;;;;;;-1.25;65.25;99343.21;435267;1256;97982;-40
2023/03/16 21:58:26;;;;;;;333.00;135.90;;;;;;;-1.38;65.62;99340.96;436320;1255;111930;-40
2023/03/16 22:08:33;;;;;;;382.30;156.20;;;;;;;-1.40;65.88;99343.03;435234;1251;107079;-40
2023/03/16 22:18:39;;;;;;;380.50;151.20;;;;;;;-1.56;65.95;99329.88;435328;1256;98049;-40
2023/03/16 22:28:49;;;;;;;284.80;118.10;;;;;;;-1.57;66.39;99322.42;435294;1251;110555;-40
2023/03/16 22:38:55;;;;;;;256.20;103.30;;;;;;;-1.58;66.42;99310.58;435222;1256;108598;-40
2023/03/16 22:59:14;;;;;;;172.40;72.70;;;;;;;-1.69;66.69;99300.58;435231;1256;106916;-40
2023/03/16 23:09:22;;;;;;;138.10;56.40;;;;;;;-1.48;66.86;99309.27;435155;1256;99137;-41
2023/03/16 23:19:31;;;;;;;147.90;60.60;;;;;;;-1.35;66.64;99310.20;435190;1256;110793;-40
2023/03/16 23:29:38;;;;;;;186.70;73.50;;;;;;;-1.24;66.86;99320.48;435186;1256;107151;-39
2023/03/16 23:39:45;;;;;;;196.10;74.40;;;;;;;-1.35;66.84;99326.58;435265;1251;99531;-42
2023/03/16 23:49:53;;;;;;;164.20;64.20;;;;;;;-1.58;66.74;99332.15;435228;1256;113412;-39
